Time;durP1;ratioP1;P1;durP2;ratioP2;P2;SDS_P1;SDS_P2;PMS_P1;PMS_P2;Temp;Humidity;BMP_temperature;BMP_pressure;BME280_temperature;BME280_humidity;BME280_pressure;Samples;Min_cycle;Max_cycle;Signal;HPM_P1;HPM_P2
2022/07/13 00:01:26;;;;;;;1.85;1.10;;;;;;;32.38;36.88;99694.13;5079452;28;20039;-86
2022/07/13 00:03:52;;;;;;;1.90;0.98;;;;;;;32.38;36.60;99694.13;5079729;28;20457;-84
2022/07/13 00:06:18;;;;;;;2.17;1.30;;;;;;;32.37;36.67;99692.47;5097511;28;20044;-84
2022/07/13 00:08:44;;;;;;;3.20;1.27;;;;;;;32.35;36.62;99691.75;5079360;28;20117;-84
2022/07/13 00:11:10;;;;;;;2.80;1.30;;;;;;;32.33;36.91;99688.38;5079603;28;20465;-85
2022/07/13 00:13:36;;;;;;;3.03;1.30;;;;;;;32.32;36.91;99692.09;5079437;28;20028;-84
2022/07/13 00:16:01;;;;;;;2.42;1.10;;;;;;;32.31;36.67;99690.41;5079111;28;20093;-85
2022/07/13 00:18:27;;;;;;;1.83;1.00;;;;;;;32.30;36.88;99694.13;5096737;28;20024;-84
2022/07/13 00:20:52;;;;;;;2.50;1.25;;;;;;;32.28;36.64;99685.31;5079036;28;20476;-85
2022/07/13 00:23:19;;;;;;;1.55;0.90;;;;;;;32.28;36.96;99690.72;5096975;28;20413;-85
2022/07/13 00:25:44;;;;;;;1.67;0.93;;;;;;;32.26;36.69;99687.34;5078764;28;20468;-85
2022/07/13 00:28:10;;;;;;;1.35;0.82;;;;;;;32.25;36.96;99685.66;5096612;28;20032;-84
2022/07/13 00:30:36;;;;;;;2.63;1.15;;;;;;;32.23;36.67;99688.53;5079024;28;20059;-84
2022/07/13 00:33:01;;;;;;;1.50;1.00;;;;;;;32.22;36.76;99685.97;5078722;28;20097;-85
2022/07/13 00:35:27;;;;;;;2.00;1.13;;;;;;;32.22;36.90;99685.97;5081065;28;20023;-85
2022/07/13 00:37:52;;;;;;;1.58;0.90;;;;;;;32.20;36.72;99688.00;5102740;28;20035;-86
2022/07/13 00:40:18;;;;;;;1.50;0.88;;;;;;;32.19;36.71;99684.44;5117884;28;20057;-86
2022/07/13 00:42:44;;;;;;;1.20;0.80;;;;;;;32.18;36.68;99684.59;5079398;28;20070;-85
2022/07/13 00:45:09;;;;;;;1.55;0.88;;;;;;;32.15;36.74;99697.44;5082467;28;20027;-85
2022/07/13 00:47:37;;;;;;;1.35;0.95;;;;;;;32.15;36.58;99700.13;5098611;28;20024;-85
2022/07/13 00:50:06;;;;;;;1.98;0.90;;;;;;;32.13;36.41;99691.34;5078888;28;20020;-84
2022/07/13 00:52:33;;;;;;;1.98;1.10;;;;;;;32.13;36.67;99691.34;5078881;28;20460;-85
2022/07/13 00:55:00;;;;;;;1.90;1.00;;;;;;;32.12;36.85;99689.66;5079548;28;20453;-85
2022/07/13 00:57:27;;;;;;;1.58;1.08;;;;;;;32.09;36.46;99692.69;5098291;28;20028;-86
2022/07/13 00:59:53;;;;;;;1.75;0.80;;;;;;;32.09;36.87;99691.81;5081736;28;20035;-87
2022/07/13 01:02:19;;;;;;;0.90;0.70;;;;;;;32.07;36.66;99685.75;5100254;28;20027;-87
2022/07/13 01:04:45;;;;;;;2.13;1.23;;;;;;;32.06;36.45;99687.63;5081312;28;20354;-82
2022/07/13 01:07:11;;;;;;;2.08;0.82;;;;;;;32.05;36.63;99685.91;5095778;28;20103;-85
2022/07/13 01:09:36;;;;;;;1.20;0.73;;;;;;;32.04;36.65;99689.63;5077983;28;20039;-85
2022/07/13 01:12:02;;;;;;;1.67;0.70;;;;;;;32.03;36.64;99693.31;5096584;28;20028;-84
2022/07/13 01:14:29;;;;;;;1.75;1.30;;;;;;;32.03;36.49;99689.75;5111675;28;20028;-86
2022/07/13 01:16:55;;;;;;;1.17;0.63;;;;;;;32.01;36.27;99685.38;5111691;28;20435;-85
2022/07/13 01:19:22;;;;;;;1.35;0.80;;;;;;;32.00;36.59;99682.84;5077724;28;20097;-85
2022/07/13 01:21:51;;;;;;;0.80;0.60;;;;;;;31.97;36.34;99688.56;5111145;28;20089;-84
2022/07/13 01:24:17;;;;;;;1.92;0.80;;;;;;;31.97;36.62;99689.44;5081883;28;20028;-84
2022/07/13 01:26:43;;;;;;;1.33;0.80;;;;;;;31.95;36.36;99679.81;5082950;28;20137;-83
2022/07/13 01:29:08;;;;;;;1.88;0.80;;;;;;;31.94;36.69;99681.66;5097190;28;20031;-84
2022/07/13 01:31:38;;;;;;;1.05;0.63;;;;;;;31.93;36.32;99688.06;5077732;28;20024;-84
2022/07/13 01:34:04;;;;;;;0.93;0.60;;;;;;;31.93;36.32;99692.59;5095488;28;20046;-84
2022/07/13 01:36:30;;;;;;;1.52;0.73;;;;;;;31.92;36.15;99685.50;5095476;28;20464;-84
2022/07/13 01:38:57;;;;;;;1.40;0.80;;;;;;;31.90;36.23;99693.75;5077655;28;20050;-85
2022/07/13 01:41:25;;;;;;;1.45;0.65;;;;;;;31.90;36.46;99690.22;5079101;28;20027;-84
2022/07/13 01:43:50;;;;;;;1.17;0.80;;;;;;;31.88;36.37;99695.78;5077416;28;20051;-87
2022/07/13 01:46:16;;;;;;;1.17;0.70;;;;;;;31.87;36.44;99694.09;5077395;28;20507;-85
2022/07/13 01:48:42;;;;;;;1.50;0.88;;;;;;;31.86;36.56;99693.25;5111303;28;20028;-85
2022/07/13 01:51:07;;;;;;;0.98;0.60;;;;;;;31.86;36.51;99687.00;5095606;28;20445;-84
2022/07/13 01:53:33;;;;;;;1.45;0.75;;;;;;;31.84;36.00;99684.47;5095246;28;20028;-84
2022/07/13 01:55:59;;;;;;;1.80;0.80;;;;;;;31.84;35.77;99684.47;5111016;28;20085;-84
2022/07/13 01:58:26;;;;;;;1.52;0.77;;;;;;;31.82;36.11;99688.31;5094889;28;20445;-83
2022/07/13 02:00:52;;;;;;;1.75;0.75;;;;;;;31.82;36.11;99688.31;5077529;28;20052;-84
2022/07/13 02:03:17;;;;;;;0.68;0.40;;;;;;;31.80;36.08;99685.75;5111203;28;20070;-84
2022/07/13 02:05:43;;;;;;;1.75;0.80;;;;;;;31.79;35.96;99689.47;5078917;28;20089;-84
2022/07/13 02:08:08;;;;;;;1.00;0.73;;;;;;;31.77;35.81;99686.09;5111837;28;20097;-84
2022/07/13 02:10:36;;;;;;;1.27;0.75;;;;;;;31.75;36.02;99685.38;5110954;28;20016;-83
2022/07/13 02:13:08;;;;;;;1.13;0.73;;;;;;;31.75;35.69;99682.69;5082818;28;20028;-84
2022/07/13 02:15:34;;;;;;;1.20;0.70;;;;;;;31.75;35.57;99674.59;5079430;28;20096;-86
2022/07/13 02:17:59;;;;;;;2.17;0.90;;;;;;;31.74;35.52;99683.69;5077550;28;20127;-84
2022/07/13 02:20:25;;;;;;;1.85;0.80;;;;;;;31.72;35.54;99685.72;5094791;28;20103;-86
2022/07/13 02:22:51;;;;;;;1.77;0.80;;;;;;;31.71;35.63;99689.44;5094978;28;20445;-85
2022/07/13 02:25:16;;;;;;;1.45;0.57;;;;;;;31.71;35.64;99686.72;5077093;28;20514;-85
2022/07/13 02:27:43;;;;;;;2.00;1.00;;;;;;;31.69;35.92;99688.72;5077050;28;20485;-85
2022/07/13 02:30:13;;;;;;;1.38;0.80;;;;;;;31.70;35.72;99693.09;5094865;28;20100;-86
2022/07/13 02:32:40;;;;;;;1.30;0.90;;;;;;;31.67;35.36;99682.66;5077056;28;20046;-83
2022/07/13 02:35:06;;;;;;;1.95;1.00;;;;;;;31.68;35.64;99684.34;5098547;28;20051;-84
2022/07/13 02:37:32;;;;;;;1.90;0.73;;;;;;;31.67;35.59;99677.25;5083743;28;20028;-86
2022/07/13 02:39:57;;;;;;;1.23;0.93;;;;;;;31.64;35.75;99683.81;5081451;28;20044;-84
2022/07/13 02:42:23;;;;;;;2.38;1.23;;;;;;;31.63;35.86;99673.19;5099233;28;20031;-85
2022/07/13 02:44:50;;;;;;;1.75;1.10;;;;;;;31.59;35.19;99670.81;5099266;28;20032;-84
2022/07/13 02:47:16;;;;;;;2.28;0.85;;;;;;;31.59;35.33;99670.81;5080358;28;20060;-84
2022/07/13 02:49:42;;;;;;;1.35;0.80;;;;;;;31.58;35.40;99666.41;5098597;28;20473;-86
2022/07/13 02:52:07;;;;;;;2.05;1.00;;;;;;;31.58;35.47;99662.88;5098938;28;20449;-85
2022/07/13 02:54:33;;;;;;;2.13;1.15;;;;;;;31.59;35.67;99667.25;5115691;28;20119;-85
2022/07/13 02:56:58;;;;;;;2.30;1.00;;;;;;;31.57;35.29;99675.50;5099090;28;20028;-85
2022/07/13 02:59:24;;;;;;;2.13;0.95;;;;;;;31.56;35.43;99664.91;5115297;28;20032;-86
2022/07/13 03:01:50;;;;;;;2.00;0.95;;;;;;;31.55;35.79;99674.81;5119867;28;20024;-86
2022/07/13 03:04:16;;;;;;;2.30;1.30;;;;;;;31.54;35.75;99666.88;5105492;28;20437;-87
2022/07/13 03:06:41;;;;;;;1.73;1.20;;;;;;;31.54;35.41;99672.28;5093727;28;20024;-87
2022/07/13 03:09:07;;;;;;;1.58;1.10;;;;;;;31.54;35.72;99666.88;5104885;28;20020;-85
2022/07/13 03:11:33;;;;;;;2.10;1.20;;;;;;;31.51;35.80;99662.66;5084608;28;20092;-87
2022/07/13 03:13:58;;;;;;;1.45;0.93;;;;;;;31.52;35.71;99671.59;5119383;28;20126;-85
2022/07/13 03:16:24;;;;;;;2.42;1.15;;;;;;;31.51;35.89;99672.63;5087441;28;20108;-87
2022/07/13 03:18:50;;;;;;;2.40;1.10;;;;;;;31.50;35.90;99665.50;5087883;28;20509;-86
2022/07/13 03:21:15;;;;;;;2.67;1.10;;;;;;;31.48;35.74;99669.22;5109256;28;20035;-85
2022/07/13 03:23:41;;;;;;;1.60;1.08;;;;;;;31.48;36.09;99669.22;5095976;28;20028;-87
2022/07/13 03:26:07;;;;;;;2.10;1.17;;;;;;;31.46;35.92;99668.53;5116719;28;20106;-87
2022/07/13 03:28:32;;;;;;;3.08;1.35;;;;;;;31.46;36.08;99667.66;5099342;28;20028;-85
2022/07/13 03:30:58;;;;;;;1.90;1.00;;;;;;;31.46;35.96;99665.84;5097758;28;20145;-84
2022/07/13 03:33:23;;;;;;;2.38;1.33;;;;;;;31.45;36.33;99660.59;5080233;28;20093;-84
2022/07/13 03:35:49;;;;;;;1.63;1.10;;;;;;;31.45;36.19;99674.06;5098454;28;20028;-83
2022/07/13 03:38:15;;;;;;;2.38;1.05;;;;;;;31.42;36.46;99671.72;5080291;28;20066;-85
2022/07/13 03:40:41;;;;;;;2.35;1.00;;;;;;;31.42;36.14;99669.00;5080670;28;20036;-85
2022/07/13 03:43:07;;;;;;;2.58;1.23;;;;;;;31.42;36.33;99671.72;5079736;28;20054;-85
2022/07/13 03:45:32;;;;;;;2.03;1.00;;;;;;;31.42;36.41;99674.41;5079790;28;20048;-85
2022/07/13 03:47:58;;;;;;;2.40;1.10;;;;;;;31.40;36.09;99671.00;5113998;28;20070;-83
2022/07/13 03:50:23;;;;;;;2.65;1.38;;;;;;;31.39;36.21;99674.72;5100308;28;20436;-83
2022/07/13 03:52:49;;;;;;;2.20;1.20;;;;;;;31.37;36.34;99672.16;5119203;28;20038;-83
2022/07/13 03:55:14;;;;;;;2.45;1.05;;;;;;;31.38;36.67;99673.03;5085344;28;20024;-84
2022/07/13 03:57:40;;;;;;;2.63;1.35;;;;;;;31.36;36.51;99675.88;5082253;28;20460;-84
2022/07/13 04:00:07;;;;;;;1.70;1.00;;;;;;;31.34;36.21;99678.72;5113507;28;20024;-85
2022/07/13 04:02:32;;;;;;;1.83;1.25;;;;;;;31.33;36.13;99687.81;5099210;28;20442;-83
2022/07/13 04:04:58;;;;;;;3.03;1.30;;;;;;;31.31;36.36;99684.44;5097859;28;20112;-88
2022/07/13 04:07:24;;;;;;;2.53;1.20;;;;;;;31.30;36.11;99681.88;5113017;28;20052;-83
2022/07/13 04:09:49;;;;;;;2.40;1.05;;;;;;;31.29;36.36;99685.59;5096860;28;20049;-85
2022/07/13 04:12:21;;;;;;;2.28;1.30;;;;;;;31.26;36.12;99684.03;5079012;28;20024;-84
2022/07/13 04:14:46;;;;;;;1.52;1.10;;;;;;;31.25;36.32;99690.41;5078801;28;20028;-84
2022/07/13 04:17:12;;;;;;;1.75;1.15;;;;;;;31.26;36.27;99686.72;5078898;28;20415;-86
2022/07/13 04:19:37;;;;;;;5.75;1.30;;;;;;;31.25;36.11;99693.13;5112520;28;20111;-85
2022/07/13 04:22:03;;;;;;;2.05;1.08;;;;;;;31.23;35.94;99692.41;5112918;28;20089;-86
2022/07/13 04:24:28;;;;;;;2.97;1.27;;;;;;;31.20;35.78;99696.28;5096769;28;20049;-83
2022/07/13 04:26:54;;;;;;;2.65;1.20;;;;;;;31.20;36.12;99692.72;5112844;28;20024;-83
2022/07/13 04:29:19;;;;;;;2.33;1.20;;;;;;;31.21;35.87;99694.41;5079912;28;20156;-83
2022/07/13 04:31:45;;;;;;;1.88;1.13;;;;;;;31.19;35.88;99697.25;5099388;28;20441;-84
2022/07/13 04:34:10;;;;;;;2.45;1.20;;;;;;;31.20;35.86;99696.28;5081755;28;20028;-85
2022/07/13 04:36:36;;;;;;;2.22;1.20;;;;;;;31.19;36.47;99697.25;5080021;28;20373;-84
2022/07/13 04:39:02;;;;;;;2.53;1.00;;;;;;;31.18;35.78;99694.75;5101703;28;20028;-85
2022/07/13 04:41:28;;;;;;;2.05;1.10;;;;;;;31.15;35.45;99697.75;5104325;28;20028;-84
2022/07/13 04:43:54;;;;;;;1.98;1.20;;;;;;;31.15;35.57;99697.75;5103666;28;20372;-83
2022/07/13 04:46:19;;;;;;;2.50;1.23;;;;;;;31.13;35.48;99700.59;5080020;28;20048;-84
2022/07/13 04:48:45;;;;;;;2.25;1.00;;;;;;;31.13;35.68;99702.44;5096247;28;20035;-83
2022/07/13 04:51:11;;;;;;;2.45;1.02;;;;;;;31.10;35.45;99706.31;5112720;28;20056;-84
2022/07/13 04:53:36;;;;;;;1.85;1.10;;;;;;;31.08;35.47;99706.44;5096028;28;20471;-83
2022/07/13 04:56:02;;;;;;;2.75;1.30;;;;;;;31.07;35.70;99699.38;5077546;28;20024;-84
2022/07/13 04:58:28;;;;;;;1.85;1.10;;;;;;;31.07;35.46;99696.66;5112548;28;20027;-83
2022/07/13 05:00:53;;;;;;;2.17;1.15;;;;;;;31.07;35.59;99699.38;5078026;28;20060;-85
2022/07/13 05:03:19;;;;;;;1.88;0.95;;;;;;;31.06;35.48;99695.00;5111638;28;20353;-86
2022/07/13 05:05:45;;;;;;;1.55;1.00;;;;;;;31.05;35.83;99701.34;5077848;28;20031;-83
2022/07/13 05:08:11;;;;;;;2.08;1.00;;;;;;;31.04;35.50;99699.66;5095979;28;20039;-83
2022/07/13 05:10:37;;;;;;;3.35;1.25;;;;;;;31.02;35.79;99703.50;5095660;28;20094;-84
2022/07/13 05:13:09;;;;;;;2.60;1.25;;;;;;;31.01;35.52;99710.75;5077792;28;20024;-83
2022/07/13 05:15:38;;;;;;;2.72;1.10;;;;;;;31.02;35.50;99716.97;5096266;28;20121;-86
2022/07/13 05:18:04;;;;;;;4.15;1.33;;;;;;;30.99;35.81;99712.75;5079292;28;20074;-87
2022/07/13 05:20:29;;;;;;;3.85;1.15;;;;;;;31.01;35.60;99721.53;5079534;28;20396;-86
2022/07/13 05:22:55;;;;;;;2.33;1.25;;;;;;;30.99;35.68;99712.75;5078777;28;20115;-86
2022/07/13 05:25:21;;;;;;;2.17;1.10;;;;;;;30.99;35.61;99714.63;5096474;28;20047;-85
2022/07/13 05:27:47;;;;;;;1.98;0.95;;;;;;;31.00;35.64;99713.59;5113273;28;20413;-86
2022/07/13 05:30:12;;;;;;;2.05;1.15;;;;;;;30.98;35.56;99721.00;5096978;28;20160;-83
2022/07/13 05:32:38;;;;;;;2.35;1.45;;;;;;;30.96;35.85;99715.75;5081506;28;20034;-86
2022/07/13 05:35:04;;;;;;;2.67;1.25;;;;;;;30.96;35.80;99713.06;5077849;28;20115;-83
2022/07/13 05:37:29;;;;;;;3.13;1.00;;;;;;;30.94;35.52;99724.00;5078146;28;20361;-84
2022/07/13 05:39:57;;;;;;;2.28;1.13;;;;;;;30.93;35.67;99718.75;5077701;28;20528;-84
2022/07/13 05:42:23;;;;;;;1.73;1.00;;;;;;;30.94;35.71;99728.56;5095536;28;20028;-84
2022/07/13 05:44:49;;;;;;;1.73;1.00;;;;;;;30.93;35.67;99732.22;5077530;28;20046;-84
2022/07/13 05:47:14;;;;;;;2.40;1.08;;;;;;;30.92;35.82;99728.69;5077009;28;20048;-84
2022/07/13 05:49:40;;;;;;;3.15;1.35;;;;;;;30.93;35.61;99718.75;5095497;28;20024;-85
2022/07/13 05:52:05;;;;;;;4.35;1.27;;;;;;;30.94;35.74;99728.56;5078351;28;20029;-87
2022/07/13 05:54:31;;;;;;;2.65;1.30;;;;;;;30.93;35.72;99733.09;5095175;28;20034;-84
2022/07/13 05:56:57;;;;;;;2.53;1.35;;;;;;;30.93;35.87;99732.22;5077615;28;20519;-83
2022/07/13 05:59:22;;;;;;;3.40;1.40;;;;;;;30.93;35.95;99732.22;5077403;28;20020;-84
2022/07/13 06:01:49;;;;;;;2.17;1.20;;;;;;;30.93;36.00;99740.31;5077181;28;20028;-83
2022/07/13 06:04:16;;;;;;;2.90;1.30;;;;;;;30.93;35.67;99743.00;5094948;28;20035;-83
2022/07/13 06:06:42;;;;;;;1.80;1.17;;;;;;;30.93;36.04;99740.31;5077085;28;20114;-83
2022/07/13 06:09:08;;;;;;;3.53;1.48;;;;;;;30.92;35.75;99735.94;5110710;28;20032;-84
2022/07/13 06:11:34;;;;;;;2.67;1.30;;;;;;;30.92;35.84;99738.63;5094898;28;20044;-84
2022/07/13 06:13:59;;;;;;;3.35;1.17;;;;;;;30.93;35.87;99745.69;5077124;28;20113;-83
2022/07/13 06:16:25;;;;;;;2.50;1.40;;;;;;;30.92;35.94;99746.69;5098125;28;20027;-85
2022/07/13 06:18:51;;;;;;;2.90;1.23;;;;;;;30.93;35.89;99740.31;5102341;28;20051;-83
2022/07/13 06:21:16;;;;;;;2.55;1.30;;;;;;;30.92;35.95;99754.78;5081435;28;20032;-84
2022/07/13 06:23:42;;;;;;;2.03;1.10;;;;;;;30.90;35.99;99748.72;5111139;28;20027;-83
2022/07/13 06:26:08;;;;;;;1.85;1.15;;;;;;;30.90;35.62;99751.41;5079880;28;20035;-83
2022/07/13 06:28:33;;;;;;;2.03;1.20;;;;;;;30.92;35.84;99749.41;5095063;28;20039;-83
2022/07/13 06:30:59;;;;;;;2.75;1.20;;;;;;;30.90;35.71;99752.22;5094655;28;20039;-85
2022/07/13 06:33:24;;;;;;;3.97;1.38;;;;;;;30.90;36.08;99752.22;5094605;28;20035;-83
2022/07/13 06:35:50;;;;;;;2.10;1.20;;;;;;;30.92;35.98;99749.41;5076861;28;20028;-83
2022/07/13 06:38:16;;;;;;;2.08;1.20;;;;;;;30.92;35.98;99754.78;5094624;28;20103;-85
2022/07/13 06:40:42;;;;;;;2.45;1.50;;;;;;;30.91;36.00;99753.09;5076718;28;20036;-84
2022/07/13 06:43:07;;;;;;;2.75;1.48;;;;;;;30.91;36.12;99753.94;5110665;28;20395;-84
2022/07/13 06:45:34;;;;;;;2.85;1.52;;;;;;;30.92;36.10;99760.16;5110613;28;20083;-83
2022/07/13 06:48:00;;;;;;;3.35;1.20;;;;;;;30.92;36.02;99760.16;5076837;28;20024;-83
2022/07/13 06:50:26;;;;;;;2.78;1.38;;;;;;;30.91;36.18;99759.34;5076564;28;20350;-83
2022/07/13 06:52:51;;;;;;;2.47;1.38;;;;;;;30.91;35.95;99755.78;5076762;28;20062;-84
2022/07/13 06:55:17;;;;;;;2.33;1.30;;;;;;;30.92;36.24;99770.94;5094592;28;20457;-85
2022/07/13 06:57:43;;;;;;;3.28;1.50;;;;;;;30.90;35.96;99765.69;5076483;28;20028;-84
2022/07/13 07:00:11;;;;;;;2.80;1.40;;;;;;;30.91;35.99;99767.41;5076560;28;20029;-85
2022/07/13 07:02:36;;;;;;;3.88;1.38;;;;;;;30.92;36.12;99760.16;5110554;28;20338;-83
2022/07/13 07:05:09;;;;;;;2.38;1.10;;;;;;;30.93;35.98;99767.25;5078189;28;20039;-84
2022/07/13 07:07:34;;;;;;;2.38;1.15;;;;;;;30.92;36.02;99770.94;5081374;28;20038;-85
2022/07/13 07:10:00;;;;;;;2.33;1.15;;;;;;;30.91;36.11;99769.25;5098722;28;20103;-84
2022/07/13 07:12:25;;;;;;;3.58;1.45;;;;;;;30.90;36.13;99767.56;5110659;28;20062;-84
2022/07/13 07:14:51;;;;;;;2.53;1.30;;;;;;;30.90;36.03;99773.78;5076700;28;20131;-84
2022/07/13 07:17:17;;;;;;;3.35;1.45;;;;;;;30.92;36.41;99770.94;5076608;28;20024;-83
2022/07/13 07:19:44;;;;;;;2.50;1.30;;;;;;;30.93;36.18;99772.63;5078427;28;20036;-83
2022/07/13 07:22:10;;;;;;;4.90;1.33;;;;;;;30.94;36.03;99774.34;5101107;28;20024;-83
2022/07/13 07:24:36;;;;;;;3.60;1.60;;;;;;;30.94;36.03;99779.75;5098002;28;20024;-83
2022/07/13 07:27:02;;;;;;;3.38;1.40;;;;;;;30.94;36.09;99779.75;5080177;28;20028;-85
2022/07/13 07:29:28;;;;;;;2.70;1.42;;;;;;;30.95;36.15;99784.13;5098907;28;20026;-84
2022/07/13 07:31:54;;;;;;;3.28;1.60;;;;;;;30.94;35.93;99775.19;5099931;28;20032;-84
2022/07/13 07:34:19;;;;;;;5.50;1.50;;;;;;;30.96;36.09;99777.72;5101177;28;20035;-88
2022/07/13 07:36:45;;;;;;;3.13;1.33;;;;;;;30.97;35.99;99784.81;5099314;28;20028;-84
2022/07/13 07:39:12;;;;;;;3.35;1.48;;;;;;;30.97;35.92;99784.81;5097923;28;20032;-84
2022/07/13 07:41:38;;;;;;;3.58;1.50;;;;;;;30.97;36.08;99778.59;5097807;28;20027;-87
2022/07/13 07:44:03;;;;;;;3.60;1.42;;;;;;;30.99;36.23;99780.09;5097480;28;20027;-84
2022/07/13 07:46:29;;;;;;;4.18;1.50;;;;;;;30.99;36.10;99771.19;5097203;28;20048;-84
2022/07/13 07:48:56;;;;;;;3.58;1.60;;;;;;;30.99;36.00;99766.63;5079454;28;20031;-84
2022/07/13 07:51:21;;;;;;;4.00;1.35;;;;;;;31.01;36.13;99775.44;5079420;28;20028;-84
2022/07/13 07:53:47;;;;;;;3.63;1.75;;;;;;;31.02;36.19;99777.13;5079883;28;20479;-83
2022/07/13 07:56:12;;;;;;;3.40;1.75;;;;;;;31.04;36.05;99775.13;5082148;28;20369;-83
2022/07/13 07:58:38;;;;;;;5.00;1.83;;;;;;;31.05;35.90;99771.41;5083198;28;20111;-83
2022/07/13 08:01:05;;;;;;;4.28;1.55;;;;;;;31.06;35.95;99770.44;5098474;28;20028;-85
2022/07/13 08:03:30;;;;;;;4.13;1.60;;;;;;;31.08;35.92;99770.25;5079319;28;20032;-83
2022/07/13 08:05:57;;;;;;;4.57;2.00;;;;;;;31.08;35.99;99768.44;5079426;28;20028;-84
2022/07/13 08:08:23;;;;;;;4.47;1.70;;;;;;;31.12;35.87;99768.13;5079231;28;20032;-85
2022/07/13 08:10:49;;;;;;;5.10;1.65;;;;;;;31.13;36.03;99777.91;5113188;28;20477;-83
2022/07/13 08:13:15;;;;;;;2.85;1.45;;;;;;;31.13;35.86;99767.13;5079286;28;20032;-83
2022/07/13 08:15:41;;;;;;;5.05;1.83;;;;;;;31.14;36.13;99776.91;5096918;28;20034;-84
2022/07/13 08:18:06;;;;;;;5.72;1.63;;;;;;;31.14;35.81;99774.22;5081945;28;20024;-84
2022/07/13 08:20:32;;;;;;;4.70;1.75;;;;;;;31.14;35.84;99769.66;5079998;28;20492;-83
2022/07/13 08:22:58;;;;;;;4.85;1.77;;;;;;;31.14;35.90;99768.81;5097138;28;20449;-84
2022/07/13 08:25:23;;;;;;;7.68;2.15;;;;;;;31.13;35.75;99772.53;5097100;28;20046;-82
2022/07/13 08:27:49;;;;;;;4.88;2.08;;;;;;;31.15;35.91;99770.50;5113710;28;20023;-83
2022/07/13 08:30:15;;;;;;;5.82;1.67;;;;;;;31.15;35.68;99770.50;5096669;28;20031;-83
2022/07/13 08:32:41;;;;;;;3.50;1.85;;;;;;;31.16;35.46;99766.81;5079112;28;20028;-84
2022/07/13 08:40:42;;;;;;;3.28;1.70;;;;;;;31.20;35.72;99763.66;5096338;28;20035;-84
2022/07/13 08:43:08;;;;;;;4.47;1.70;;;;;;;31.23;35.88;99767.88;5082304;28;20060;-84
2022/07/13 08:45:34;;;;;;;3.72;1.60;;;;;;;31.25;35.66;99755.09;5103150;28;20067;-84
2022/07/13 08:48:13;;;;;;;5.07;1.75;;;;;;;31.29;35.62;99755.69;5081947;28;20192;-84
2022/07/13 08:50:40;;;;;;;2.20;1.40;;;;;;;31.30;35.64;99763.63;5111986;28;20027;-84
2022/07/13 08:53:06;;;;;;;3.78;1.23;;;;;;;31.33;35.72;99757.91;5078371;28;20024;-83
2022/07/13 08:55:32;;;;;;;3.13;1.38;;;;;;;31.34;35.56;99756.88;5078341;28;20059;-83
2022/07/13 08:58:00;;;;;;;2.92;1.60;;;;;;;31.37;35.65;99754.91;5078308;28;20052;-82
2022/07/13 09:00:25;;;;;;;3.03;1.58;;;;;;;31.39;35.61;99756.44;5112449;28;20020;-83
2022/07/13 09:02:51;;;;;;;3.25;1.48;;;;;;;31.40;35.67;99755.44;5078132;28;20111;-83
2022/07/13 09:05:20;;;;;;;3.45;1.40;;;;;;;31.44;35.68;99747.88;5095844;28;20050;-82
2022/07/13 09:08:02;;;;;;;3.28;1.40;;;;;;;31.45;35.84;99754.97;5077928;28;20381;-83
2022/07/13 09:10:28;;;;;;;2.38;1.30;;;;;;;31.46;35.51;99749.41;5096177;28;20020;-84
2022/07/13 09:12:53;;;;;;;2.63;1.25;;;;;;;31.48;35.46;99749.28;5111888;28;20048;-83
2022/07/13 09:15:19;;;;;;;2.42;1.33;;;;;;;31.51;35.77;99754.34;5111974;28;20437;-83
2022/07/13 09:17:45;;;;;;;2.50;1.20;;;;;;;31.53;35.46;99749.66;5114745;28;20028;-84
2022/07/13 09:20:10;;;;;;;2.78;1.33;;;;;;;31.55;35.66;99753.03;5077950;28;20032;-85
2022/07/13 09:22:56;;;;;;;3.45;1.65;;;;;;;31.59;35.62;99751.72;5078002;28;20024;-83
2022/07/13 09:25:25;;;;;;;;;;;;;;;31.64;35.31;99753.94;5096718;28;20039;-84
2022/07/13 09:27:53;;;;;;;2.88;1.60;;;;;;;31.65;35.43;99752.09;5097016;28;19908;-86
2022/07/13 09:30:26;;;;;;;1.95;1.13;;;;;;;31.68;35.38;99755.31;5111996;28;20019;-85
2022/07/13 09:32:58;;;;;;;2.50;1.40;;;;;;;31.69;35.19;99756.16;5081721;28;20102;-84
2022/07/13 09:35:43;;;;;;;5.10;1.50;;;;;;;31.72;35.35;99753.97;5079650;28;20032;-85
2022/07/13 09:38:25;;;;;;;2.60;1.30;;;;;;;31.74;35.51;99754.69;5096114;28;20012;-84
2022/07/13 09:40:51;;;;;;;2.10;1.38;;;;;;;31.76;35.32;99751.81;5080190;28;20469;-86
2022/07/13 09:46:11;;;;;;;2.65;1.20;;;;;;;31.81;35.49;99765.69;5098250;28;20059;-82
2022/07/13 09:48:38;;;;;;;2.72;1.38;;;;;;;31.86;35.20;99758.00;5096077;28;20051;-82
2022/07/13 09:51:27;;;;;;;2.15;1.30;;;;;;;31.87;35.23;99765.06;5095752;28;20342;-83
2022/07/13 09:53:58;;;;;;;2.10;1.33;;;;;;;31.90;35.36;99761.22;5095978;28;20024;-83
2022/07/13 09:56:26;;;;;;;1.65;1.30;;;;;;;31.91;35.33;99759.38;5077774;28;20464;-84
2022/07/13 09:58:54;;;;;;;3.00;1.27;;;;;;;31.93;35.47;99757.34;5111018;28;20032;-82
2022/07/13 10:01:21;;;;;;;1.80;1.13;;;;;;;31.94;35.67;99772.53;5077317;28;20032;-83
2022/07/13 10:03:47;;;;;;;1.77;1.38;;;;;;;31.95;35.25;99760.75;5095317;28;20107;-83
2022/07/13 10:06:13;;;;;;;3.55;1.42;;;;;;;31.97;35.36;99769.53;5077229;28;20063;-83
2022/07/13 10:08:43;;;;;;;3.00;1.10;;;;;;;31.96;35.11;99762.44;5077067;28;20028;-82
2022/07/13 10:11:10;;;;;;;2.17;1.20;;;;;;;31.98;35.31;99765.81;5095695;28;20024;-84
2022/07/13 10:13:38;;;;;;;2.83;1.30;;;;;;;31.99;35.09;99762.97;5095590;28;20027;-84
2022/07/13 10:16:04;;;;;;;3.20;1.45;;;;;;;31.99;34.90;99767.50;5079440;28;20066;-84
2022/07/13 10:18:35;;;;;;;3.03;1.40;;;;;;;32.03;35.02;99768.03;5077356;28;20111;-83
2022/07/13 10:21:18;;;;;;;2.08;1.35;;;;;;;32.05;35.39;99756.06;5081856;28;20036;-85
2022/07/13 10:23:44;;;;;;;2.50;1.20;;;;;;;32.06;35.06;99759.63;5100990;28;20045;-84
2022/07/13 10:26:25;;;;;;;1.77;1.30;;;;;;;32.08;35.19;99760.31;5077584;28;20105;-82
2022/07/13 10:29:11;;;;;;;2.85;1.20;;;;;;;32.12;35.60;99757.16;5095251;28;20495;-84
2022/07/13 10:31:39;;;;;;;1.67;1.10;;;;;;;32.14;35.38;99765.91;5076844;28;20035;-82
2022/07/13 10:34:07;;;;;;;2.10;1.20;;;;;;;32.13;35.40;99757.97;5095356;28;20484;-83
2022/07/13 10:36:48;;;;;;;1.67;1.10;;;;;;;32.14;35.25;99757.81;5094918;28;20028;-83
2022/07/13 10:39:14;;;;;;;1.83;1.13;;;;;;;32.17;35.17;99753.09;5077383;28;20028;-84
2022/07/13 10:42:00;;;;;;;2.00;1.25;;;;;;;32.18;35.24;99750.25;5078211;28;20085;-83
2022/07/13 10:44:38;;;;;;;4.15;1.25;;;;;;;32.18;34.98;99761.03;5094693;28;20027;-85
2022/07/13 10:47:06;;;;;;;2.20;1.20;;;;;;;32.20;35.08;99752.78;5076342;28;20397;-83
2022/07/13 10:49:47;;;;;;;2.55;1.13;;;;;;;32.22;35.17;99753.47;5094753;28;20035;-84
2022/07/13 10:52:19;;;;;;;1.90;1.20;;;;;;;32.23;35.10;99753.31;5076629;28;20532;-84
2022/07/13 10:55:11;;;;;;;2.60;1.33;;;;;;;32.27;35.31;99764.63;5096168;28;20032;-84
2022/07/13 10:57:38;;;;;;;1.52;1.20;;;;;;;32.26;35.17;99758.38;5091516;28;20036;-84
2022/07/13 11:02:55;;;;;;;1.98;1.10;;;;;;;32.30;35.49;99764.31;5098537;28;20498;-84
2022/07/13 11:05:35;;;;;;;1.98;1.13;;;;;;;32.34;35.24;99760.25;5098419;28;20027;-83
2022/07/13 11:08:16;;;;;;;1.77;1.10;;;;;;;32.36;35.45;99750.16;5084619;28;20092;-83
2022/07/13 11:10:42;;;;;;;1.90;1.23;;;;;;;32.39;35.28;99751.69;5102604;28;20028;-84
2022/07/13 11:13:28;;;;;;;2.00;1.00;;;;;;;32.41;35.41;99755.97;5098959;28;20034;-84
2022/07/13 11:15:58;;;;;;;1.48;1.30;;;;;;;32.45;35.38;99761.03;5082670;28;20201;-83
2022/07/13 11:18:25;;;;;;;1.73;1.17;;;;;;;32.47;35.20;99753.59;5100799;28;20365;-86
2022/07/13 11:21:04;;;;;;;2.78;1.30;;;;;;;32.49;35.43;99752.44;5080367;28;20120;-82
2022/07/13 11:26:39;;;;;;;2.42;1.70;;;;;;;32.54;35.40;99751.97;5098955;28;20046;-84
2022/07/13 11:29:30;;;;;;;1.67;1.10;;;;;;;32.57;35.49;99748.91;5080107;28;20548;-83
2022/07/13 11:31:58;;;;;;;2.28;1.05;;;;;;;32.58;35.08;99750.59;5080212;28;20043;-84
2022/07/13 11:34:25;;;;;;;1.38;0.95;;;;;;;32.60;35.39;99740.50;5080187;28;20031;-83
2022/07/13 11:36:52;;;;;;;1.60;1.05;;;;;;;32.62;35.36;99743.88;5086518;28;20043;-84
2022/07/13 11:39:32;;;;;;;3.05;1.23;;;;;;;32.64;35.60;99741.84;5082347;28;20032;-86
2022/07/13 11:41:59;;;;;;;2.55;1.02;;;;;;;32.66;35.49;99733.56;5083213;28;20036;-84
2022/07/13 11:44:29;;;;;;;1.60;1.10;;;;;;;32.68;35.41;99737.81;5083729;28;20361;-85
2022/07/13 11:46:57;;;;;;;2.35;1.23;;;;;;;32.70;35.27;99731.38;5082029;28;20391;-86
2022/07/13 11:49:25;;;;;;;1.52;0.93;;;;;;;32.72;35.52;99727.50;5095159;28;20031;-86